Crown Point, New York
Current Conditions -  °F | °C
As of 4:15 AM on Thursday 27 Nov 2014 (Local Time) from K6B0 Reporting Station
Light Snow Light Snow  
Wind Chill: 20°   Ceiling: 1100
Heat Index: 28°   Visibility: 7mi
Dew Point: 28°   Wind: 8mph
Humidity: 100%   Direction: 360°N
Pressure: 29.9"   Gusts: NA
Location:  43.95°N, 73.44°W
Report Text: K6B0 270915Z AUTO 36007KT 7SM -SN BKN011 OVC018 M02/M02 A2990 RMK AO2 T10201020
Loading
Personal Weather Stations






























Interactive Weather Map New forecast layout! Learn more

10-Day Weather Forecast

Advertisements
Track Severe Weather on mobile